createdAt,value
2022-10-26T00:02:32.819Z,76450.38
2022-10-26T00:06:34.415Z,76452.44
2022-10-26T00:10:38.788Z,76444.13
2022-10-26T00:14:40.197Z,76448.28
2022-10-26T00:18:42.545Z,76446.22
2022-10-26T00:22:44.112Z,76446.22
2022-10-26T00:26:47.225Z,76448.28
2022-10-26T00:30:48.760Z,76450.38
2022-10-26T00:34:50.321Z,76446.22
2022-10-26T00:38:53.288Z,76442.06
2022-10-26T00:42:56.561Z,76425.44
2022-10-26T00:46:58.077Z,76419.22
2022-10-26T00:51:02.356Z,76417.16
2022-10-26T00:55:05.602Z,76431.69
2022-10-26T00:59:11.733Z,76425.44
2022-10-26T01:03:13.265Z,76444.13
2022-10-26T01:07:14.982Z,76446.22
2022-10-26T01:11:16.721Z,76431.69
2022-10-26T01:15:23.720Z,76425.44
2022-10-26T01:20:00.506Z,76425.44
2022-10-26T01:24:34.186Z,76408.84
2022-10-26T01:28:53.341Z,76415.06
2022-10-26T01:33:16.700Z,76404.69
2022-10-26T01:37:24.721Z,76392.22
2022-10-26T01:41:30.266Z,76392.22
2022-10-26T01:45:33.738Z,76398.47
2022-10-26T01:49:40.387Z,76394.31
2022-10-26T01:53:45.585Z,76402.63
2022-10-26T01:57:47.298Z,76392.22
2022-10-26T02:02:22.632Z,76388.06
2022-10-26T02:06:36.729Z,76392.22
2022-10-26T02:10:48.225Z,76381.84
2022-10-26T02:14:55.737Z,76377.69
2022-10-26T02:19:02.729Z,76369.41
2022-10-26T02:23:08.009Z,76356.94
2022-10-26T02:27:16.076Z,76359.00
2022-10-26T02:31:19.478Z,76346.56
2022-10-26T02:35:25.730Z,76340.31
2022-10-26T02:39:31.210Z,76327.88
2022-10-26T02:43:38.274Z,76340.31
2022-10-26T02:47:39.941Z,76327.88
2022-10-26T02:55:55.006Z,76315.41
2022-10-26T02:59:57.719Z,76298.81
2022-10-26T03:04:00.310Z,76294.66
2022-10-26T03:08:01.880Z,76284.28
2022-10-26T03:12:05.497Z,76286.34
2022-10-26T03:16:07.392Z,76278.03
2022-10-26T03:20:09.728Z,76273.88
2022-10-26T03:24:11.288Z,76280.13
2022-10-26T03:28:14.172Z,76290.50
2022-10-26T03:32:15.740Z,76271.81
2022-10-26T03:36:17.313Z,76265.59
2022-10-26T03:40:18.736Z,76253.13
2022-10-26T03:44:21.708Z,76234.44
2022-10-26T03:48:23.276Z,76221.97
2022-10-26T03:52:25.108Z,76224.06
2022-10-26T03:56:26.585Z,76207.44
2022-10-26T04:00:29.513Z,76207.44
2022-10-26T04:04:31.059Z,76199.16
2022-10-26T04:08:32.579Z,76195.00
2022-10-26T04:12:36.875Z,76178.38
2022-10-26T04:16:39.772Z,76170.06
2022-10-26T04:20:41.521Z,76157.63
2022-10-26T04:24:43.096Z,76149.31
2022-10-26T04:28:44.656Z,76145.16
2022-10-26T04:32:47.875Z,76149.31
2022-10-26T04:36:49.440Z,76147.25
2022-10-26T04:40:51.029Z,76155.53
2022-10-26T04:44:52.577Z,76149.31
2022-10-26T04:48:55.457Z,76141.00
2022-10-26T04:52:57.601Z,76124.41
2022-10-26T04:56:59.184Z,76109.88
2022-10-26T05:01:01.274Z,76111.94
2022-10-26T05:05:04.668Z,76109.88
2022-10-26T05:09:06.154Z,76095.34
2022-10-26T05:13:09.147Z,76087.03
2022-10-26T05:17:10.582Z,76066.28
2022-10-26T05:21:13.437Z,76072.50
2022-10-26T05:25:16.194Z,76064.19
2022-10-26T05:29:17.601Z,76041.38
2022-10-26T05:33:18.976Z,76047.59
2022-10-26T05:37:21.721Z,76057.97
2022-10-26T05:41:23.238Z,76062.13
2022-10-26T05:45:24.655Z,76047.59
2022-10-26T05:49:26.229Z,76066.28
2022-10-26T05:53:29.039Z,76066.28
2022-10-26T05:57:31.148Z,76055.91
2022-10-26T06:01:43.854Z,76078.72
2022-10-26T06:05:52.269Z,76095.34
2022-10-26T06:09:55.628Z,76099.50
2022-10-26T06:13:57.690Z,76111.94
2022-10-26T06:18:06.041Z,76128.56
2022-10-26T06:22:23.554Z,76138.94
2022-10-26T06:26:40.228Z,76153.47
2022-10-26T06:30:41.808Z,76180.47
2022-10-26T06:34:47.879Z,76170.06
2022-10-26T06:38:53.454Z,76157.63
2022-10-26T06:42:56.748Z,76180.47
2022-10-26T06:47:06.013Z,76178.38
2022-10-26T06:51:12.327Z,76201.22
2022-10-26T06:55:15.561Z,76219.91
2022-10-26T06:59:30.350Z,76232.38
2022-10-26T07:03:31.911Z,76219.91
2022-10-26T07:07:37.083Z,76228.22
2022-10-26T07:11:38.452Z,76207.44
2022-10-26T07:15:41.229Z,76207.44
2022-10-26T07:19:42.651Z,76215.75
2022-10-26T07:23:44.255Z,76207.44
2022-10-26T07:27:45.636Z,76195.00
2022-10-26T07:31:48.721Z,76180.47
2022-10-26T07:35:50.328Z,76170.06
2022-10-26T07:39:51.874Z,76180.47
2022-10-26T07:43:53.414Z,76174.22
2022-10-26T07:47:56.649Z,76174.22
2022-10-26T07:51:58.044Z,76176.31
2022-10-26T07:55:59.651Z,76165.94
2022-10-26T08:00:01.048Z,76153.47
2022-10-26T08:04:03.937Z,76145.16
2022-10-26T08:08:05.403Z,76128.56
2022-10-26T08:12:07.206Z,76132.72
2022-10-26T08:16:09.012Z,76111.94
2022-10-26T08:20:12.196Z,76105.72
2022-10-26T08:24:13.690Z,76082.88
2022-10-26T08:28:15.263Z,76078.72
2022-10-26T08:32:16.832Z,76037.22
2022-10-26T08:36:23.823Z,75995.69
2022-10-26T08:40:28.302Z,75962.47
2022-10-26T08:44:36.134Z,75954.16
2022-10-26T08:48:42.871Z,75985.31
2022-10-26T08:52:49.982Z,75999.84
2022-10-26T08:56:55.465Z,75987.38
2022-10-26T09:00:58.332Z,75993.63
2022-10-26T09:05:00.408Z,75991.53
2022-10-26T09:09:10.112Z,75964.53
2022-10-26T09:13:22.039Z,75979.09
2022-10-26T09:17:33.894Z,75983.22
2022-10-26T09:21:43.198Z,75985.31
2022-10-26T09:25:57.676Z,75987.38
2022-10-26T09:30:03.786Z,75974.94
2022-10-26T09:34:07.714Z,75954.16
2022-10-26T09:38:17.649Z,75950.00
2022-10-26T09:42:26.240Z,75941.72
2022-10-26T09:46:32.597Z,75920.94
2022-10-26T09:50:36.904Z,75908.50
2022-10-26T09:54:38.501Z,75879.44
2022-10-26T09:58:43.689Z,75858.66
2022-10-26T10:02:51.932Z,75821.31
2022-10-26T10:07:12.712Z,75744.50
2022-10-26T10:11:15.160Z,75671.84
2022-10-26T10:15:21.390Z,75539.00
2022-10-26T10:19:25.708Z,75464.25
2022-10-26T10:23:30.739Z,75406.13
2022-10-26T10:27:32.311Z,75281.59
2022-10-26T10:31:35.116Z,75192.34
2022-10-26T10:35:39.539Z,75277.44
2022-10-26T10:39:42.282Z,75219.31
2022-10-26T10:43:46.979Z,75107.25
2022-10-26T10:48:02.112Z,75032.53
2022-10-26T10:52:04.387Z,75067.81
2022-10-26T10:56:27.251Z,75082.34
2022-10-26T11:00:31.010Z,75107.25
2022-10-26T11:04:57.094Z,75036.66
2022-10-26T11:09:02.323Z,75140.44
2022-10-26T11:13:15.302Z,75123.84
2022-10-26T11:17:21.092Z,75053.28
2022-10-26T11:21:28.254Z,75053.28
2022-10-26T11:25:35.347Z,75105.16
2022-10-26T11:29:44.639Z,75057.44
2022-10-26T11:33:59.446Z,75055.34
2022-10-26T11:38:09.599Z,75047.06
2022-10-26T11:42:22.382Z,75055.34
2022-10-26T11:46:28.279Z,75057.44
2022-10-26T11:50:34.035Z,75080.25
2022-10-26T11:54:41.425Z,75092.72
2022-10-26T11:58:45.607Z,75136.31
2022-10-26T12:02:50.509Z,75138.38
2022-10-26T12:06:54.711Z,75196.50
2022-10-26T12:11:05.220Z,75192.34
2022-10-26T12:15:30.811Z,75277.44
2022-10-26T12:19:50.281Z,75275.38
2022-10-26T12:23:57.077Z,75377.06
2022-10-26T12:27:59.787Z,75360.47
2022-10-26T12:32:01.322Z,75348.00
2022-10-26T12:36:02.852Z,75285.75
2022-10-26T12:40:39.772Z,75314.81
2022-10-26T12:45:02.241Z,75327.25
2022-10-26T12:49:04.070Z,75337.63
2022-10-26T12:53:07.976Z,75327.25
2022-10-26T12:57:23.485Z,75316.88
2022-10-26T13:02:03.548Z,75343.88
2022-10-26T13:06:22.809Z,75368.78
2022-10-26T13:10:26.253Z,75401.97
2022-10-26T13:14:33.863Z,75406.13
2022-10-26T13:18:42.307Z,75424.81
2022-10-26T13:22:47.315Z,75435.19
2022-10-26T13:27:24.684Z,75447.66
2022-10-26T13:31:55.065Z,75460.09
2022-10-26T13:35:59.425Z,75460.09
2022-10-26T13:40:04.696Z,75509.94
2022-10-26T13:44:14.057Z,75507.84
2022-10-26T13:48:22.568Z,75522.38
2022-10-26T13:52:32.909Z,75536.91
2022-10-26T13:56:42.730Z,75561.81
2022-10-26T14:01:12.263Z,75570.13
2022-10-26T14:05:16.988Z,75557.66
2022-10-26T14:09:22.057Z,75561.81
2022-10-26T14:13:25.566Z,75588.81
2022-10-26T14:17:27.003Z,75609.56
2022-10-26T14:21:28.628Z,75617.88
2022-10-26T14:25:42.651Z,75632.41
2022-10-26T14:30:17.124Z,75651.09
2022-10-26T14:34:17.593Z,75673.91
2022-10-26T14:38:22.240Z,75717.50
2022-10-26T14:42:28.772Z,75721.66
2022-10-26T14:46:34.419Z,75759.03
2022-10-26T14:50:36.100Z,75746.56
2022-10-26T14:54:37.555Z,75771.47
2022-10-26T14:58:40.563Z,75806.78
2022-10-26T15:02:44.230Z,75823.38
2022-10-26T15:06:46.506Z,75854.53
2022-10-26T15:10:48.608Z,75875.28
2022-10-26T15:14:52.399Z,75891.88
2022-10-26T15:18:57.588Z,75920.94
2022-10-26T15:23:01.680Z,75943.78
2022-10-26T15:27:04.752Z,75979.09
2022-10-26T15:31:31.694Z,75991.53
2022-10-26T15:35:33.291Z,76020.59
2022-10-26T15:39:34.696Z,76035.13
2022-10-26T15:43:37.436Z,76060.03
2022-10-26T15:47:40.292Z,76082.88
2022-10-26T15:51:46.576Z,76103.66
2022-10-26T15:55:48.540Z,76118.19
2022-10-26T15:59:49.966Z,76124.41
2022-10-26T16:03:53.315Z,76157.63
2022-10-26T16:07:55.015Z,76174.22
2022-10-26T16:11:57.792Z,76186.69
2022-10-26T16:15:59.475Z,76207.44
2022-10-26T16:20:05.375Z,76248.97
2022-10-26T16:24:10.363Z,76248.97
2022-10-26T16:28:14.200Z,76278.03
2022-10-26T16:32:15.739Z,76294.66
2022-10-26T16:36:18.480Z,76315.41
2022-10-26T16:40:20.011Z,76332.03
2022-10-26T16:44:21.432Z,76340.31
2022-10-26T16:48:22.905Z,76373.53
2022-10-26T16:52:27.609Z,76379.78
2022-10-26T16:56:29.723Z,76394.31
2022-10-26T17:00:31.467Z,76404.69
2022-10-26T17:04:32.891Z,76421.31
2022-10-26T17:08:36.361Z,76437.91
2022-10-26T17:12:38.026Z,76440.00
2022-10-26T17:16:39.612Z,76460.75
2022-10-26T17:20:49.181Z,76473.22
2022-10-26T17:24:51.993Z,76489.81
2022-10-26T17:28:54.966Z,76508.50
2022-10-26T17:32:56.666Z,76493.97
2022-10-26T17:36:58.084Z,76508.50
2022-10-26T17:41:02.061Z,76518.88
2022-10-26T17:45:04.281Z,76527.19
2022-10-26T17:49:05.913Z,76535.50
2022-10-26T17:53:07.467Z,76554.19
2022-10-26T17:57:10.267Z,76574.94
2022-10-26T18:01:13.255Z,76579.09
2022-10-26T18:05:14.749Z,76599.88
2022-10-26T18:09:16.173Z,76610.25
2022-10-26T18:13:19.221Z,76618.56
2022-10-26T18:17:20.633Z,76631.00
2022-10-26T18:21:22.133Z,76647.63
2022-10-26T18:25:23.901Z,76660.06
2022-10-26T18:29:26.822Z,76643.47
2022-10-26T18:33:32.929Z,76664.22
2022-10-26T18:37:36.125Z,76680.84
2022-10-26T18:41:37.565Z,76685.00
2022-10-26T18:45:40.346Z,76701.59
2022-10-26T18:49:41.750Z,76714.06
2022-10-26T18:53:44.521Z,76716.13
2022-10-26T18:57:45.905Z,76722.38
2022-10-26T19:01:49.570Z,76730.69
2022-10-26T19:05:51.085Z,76743.13
2022-10-26T19:09:52.639Z,76745.22
2022-10-26T19:13:54.642Z,76747.28
2022-10-26T19:17:57.873Z,76759.75
2022-10-26T19:21:59.289Z,76763.91
2022-10-26T19:26:00.933Z,76763.91
2022-10-26T19:30:02.336Z,76768.06
2022-10-26T19:34:05.280Z,76776.34
2022-10-26T19:38:06.837Z,76786.75
2022-10-26T19:42:08.253Z,76782.59
2022-10-26T19:46:12.113Z,76797.13
2022-10-26T19:50:15.112Z,76801.28
2022-10-26T19:54:16.672Z,76805.44
2022-10-26T19:58:18.113Z,76801.28
2022-10-26T20:02:19.688Z,76809.56
2022-10-26T20:06:22.669Z,76813.72
2022-10-26T20:10:25.829Z,76817.88
2022-10-26T20:14:27.289Z,76830.34
2022-10-26T20:18:28.829Z,76817.88
2022-10-26T20:22:31.661Z,76828.25
2022-10-26T20:26:33.061Z,76826.19
2022-10-26T20:30:36.549Z,76803.34
2022-10-26T20:34:41.333Z,76776.34
2022-10-26T20:38:47.464Z,76768.06
2022-10-26T20:46:56.531Z,76774.28
2022-10-26T20:51:04.965Z,76801.28
2022-10-26T20:55:17.733Z,76822.03
2022-10-26T20:59:26.030Z,76807.50
2022-10-26T21:03:27.897Z,76809.56
2022-10-26T21:07:29.465Z,76842.81
2022-10-26T21:11:32.533Z,76855.25
2022-10-26T21:15:34.761Z,76842.81
2022-10-26T21:19:36.364Z,76859.41
2022-10-26T21:23:39.466Z,76871.88
2022-10-26T21:27:42.252Z,76871.88
2022-10-26T21:31:43.873Z,76886.41
2022-10-26T21:35:52.735Z,76894.72
2022-10-26T21:39:54.246Z,76896.78
2022-10-26T21:44:08.364Z,76896.78
2022-10-26T21:48:11.344Z,76903.03
2022-10-26T21:52:12.796Z,76921.72
2022-10-26T21:56:16.761Z,76919.63
2022-10-26T22:00:19.494Z,76919.63
2022-10-26T22:04:21.033Z,76940.41
2022-10-26T22:08:22.424Z,76936.25
2022-10-26T22:12:24.100Z,76934.16
2022-10-26T22:16:28.430Z,76936.25
2022-10-26T22:20:29.881Z,76948.69
2022-10-26T22:24:31.306Z,76967.38
2022-10-26T22:28:34.663Z,76971.53
2022-10-26T22:32:39.409Z,76979.84
2022-10-26T22:36:40.996Z,76977.78
2022-10-26T22:40:42.576Z,76979.84
2022-10-26T22:44:43.992Z,76977.78
2022-10-26T22:48:47.534Z,76992.31
2022-10-26T22:52:49.236Z,76988.16
2022-10-26T22:56:50.992Z,76998.53
2022-10-26T23:00:52.590Z,77017.22
2022-10-26T23:04:55.658Z,77011.00
2022-10-26T23:08:57.668Z,77004.78
2022-10-26T23:12:59.301Z,77002.69
2022-10-26T23:17:01.013Z,77023.47
2022-10-26T23:21:04.977Z,77004.78
2022-10-26T23:25:07.004Z,77013.06
2022-10-26T23:29:11.184Z,77006.84
2022-10-26T23:33:12.688Z,77008.94
2022-10-26T23:37:15.673Z,77025.53
2022-10-26T23:41:17.269Z,77021.38
2022-10-26T23:45:18.920Z,77008.94
2022-10-26T23:49:20.360Z,77017.22
2022-10-26T23:53:26.817Z,77019.31
2022-10-26T23:57:28.536Z,77004.78
